sensor_id;sensor_type;location;lat;lon;timestamp;P1;durP1;ratioP1;P2;durP2;ratioP2
46322;SDS011;32044;52.386;13.278;2022-08-25T00:01:38;11.07;;;7.15;;
46322;SDS011;32044;52.386;13.278;2022-08-25T00:03:59;9.27;;;6.70;;
46322;SDS011;32044;52.386;13.278;2022-08-25T00:06:26;9.20;;;6.53;;
46322;SDS011;32044;52.386;13.278;2022-08-25T00:08:51;10.85;;;7.15;;
46322;SDS011;32044;52.386;13.278;2022-08-25T00:11:21;8.98;;;6.35;;
46322;SDS011;32044;52.386;13.278;2022-08-25T00:13:48;9.83;;;6.77;;
46322;SDS011;32044;52.386;13.278;2022-08-25T00:16:16;10.15;;;6.90;;
46322;SDS011;32044;52.386;13.278;2022-08-25T00:18:43;8.98;;;6.70;;
46322;SDS011;32044;52.386;13.278;2022-08-25T00:21:11;8.95;;;6.88;;
46322;SDS011;32044;52.386;13.278;2022-08-25T00:23:37;8.27;;;6.25;;
46322;SDS011;32044;52.386;13.278;2022-08-25T00:26:02;6.43;;;5.72;;
46322;SDS011;32044;52.386;13.278;2022-08-25T00:28:28;7.15;;;6.35;;
46322;SDS011;32044;52.386;13.278;2022-08-25T00:30:54;10.77;;;7.13;;
46322;SDS011;32044;52.386;13.278;2022-08-25T00:33:20;8.85;;;6.93;;
46322;SDS011;32044;52.386;13.278;2022-08-25T00:35:45;8.65;;;7.03;;
46322;SDS011;32044;52.386;13.278;2022-08-25T00:38:11;12.38;;;7.05;;
46322;SDS011;32044;52.386;13.278;2022-08-25T00:40:37;7.57;;;6.38;;
46322;SDS011;32044;52.386;13.278;2022-08-25T00:43:04;10.43;;;6.55;;
46322;SDS011;32044;52.386;13.278;2022-08-25T00:45:30;9.05;;;6.50;;
46322;SDS011;32044;52.386;13.278;2022-08-25T00:47:56;9.27;;;6.25;;
46322;SDS011;32044;52.386;13.278;2022-08-25T00:50:21;7.80;;;6.38;;
46322;SDS011;32044;52.386;13.278;2022-08-25T00:52:49;8.32;;;6.60;;
46322;SDS011;32044;52.386;13.278;2022-08-25T01:00:40;7.47;;;6.10;;
46322;SDS011;32044;52.386;13.278;2022-08-25T01:03:08;8.70;;;6.38;;
46322;SDS011;32044;52.386;13.278;2022-08-25T01:05:33;10.73;;;6.80;;
46322;SDS011;32044;52.386;13.278;2022-08-25T01:07:59;10.18;;;6.57;;
46322;SDS011;32044;52.386;13.278;2022-08-25T01:10:30;9.32;;;6.38;;
46322;SDS011;32044;52.386;13.278;2022-08-25T01:12:57;7.13;;;6.03;;
46322;SDS011;32044;52.386;13.278;2022-08-25T01:15:25;9.20;;;6.60;;
46322;SDS011;32044;52.386;13.278;2022-08-25T01:17:54;8.90;;;6.18;;
46322;SDS011;32044;52.386;13.278;2022-08-25T01:20:22;6.40;;;5.68;;
46322;SDS011;32044;52.386;13.278;2022-08-25T01:22:49;8.48;;;6.50;;
46322;SDS011;32044;52.386;13.278;2022-08-25T01:25:28;7.53;;;6.15;;
46322;SDS011;32044;52.386;13.278;2022-08-25T01:27:55;7.10;;;5.93;;
46322;SDS011;32044;52.386;13.278;2022-08-25T01:30:20;7.90;;;6.30;;
46322;SDS011;32044;52.386;13.278;2022-08-25T01:32:46;11.90;;;6.57;;
46322;SDS011;32044;52.386;13.278;2022-08-25T01:35:11;7.70;;;6.38;;
46322;SDS011;32044;52.386;13.278;2022-08-25T01:37:37;8.55;;;6.30;;
46322;SDS011;32044;52.386;13.278;2022-08-25T01:40:02;6.88;;;5.90;;
46322;SDS011;32044;52.386;13.278;2022-08-25T01:45:24;8.50;;;6.43;;
46322;SDS011;32044;52.386;13.278;2022-08-25T01:47:49;7.75;;;6.00;;
46322;SDS011;32044;52.386;13.278;2022-08-25T01:50:15;9.73;;;6.78;;
46322;SDS011;32044;52.386;13.278;2022-08-25T01:52:50;9.52;;;6.90;;
46322;SDS011;32044;52.386;13.278;2022-08-25T01:55:19;10.40;;;7.13;;
46322;SDS011;32044;52.386;13.278;2022-08-25T01:57:44;10.90;;;7.25;;
46322;SDS011;32044;52.386;13.278;2022-08-25T02:00:10;9.60;;;7.15;;
46322;SDS011;32044;52.386;13.278;2022-08-25T02:02:38;10.75;;;6.80;;
46322;SDS011;32044;52.386;13.278;2022-08-25T02:05:03;8.35;;;7.55;;
46322;SDS011;32044;52.386;13.278;2022-08-25T02:07:29;8.10;;;6.13;;
46322;SDS011;32044;52.386;13.278;2022-08-25T02:09:54;13.13;;;7.60;;
46322;SDS011;32044;52.386;13.278;2022-08-25T02:12:20;7.50;;;6.75;;
46322;SDS011;32044;52.386;13.278;2022-08-25T02:14:45;17.55;;;8.50;;
46322;SDS011;32044;52.386;13.278;2022-08-25T02:17:10;7.82;;;6.72;;
46322;SDS011;32044;52.386;13.278;2022-08-25T02:19:36;7.85;;;7.05;;
46322;SDS011;32044;52.386;13.278;2022-08-25T02:22:01;9.23;;;7.13;;
46322;SDS011;32044;52.386;13.278;2022-08-25T02:24:27;10.63;;;7.78;;
46322;SDS011;32044;52.386;13.278;2022-08-25T02:26:53;10.20;;;7.28;;
46322;SDS011;32044;52.386;13.278;2022-08-25T02:29:18;9.90;;;8.15;;
46322;SDS011;32044;52.386;13.278;2022-08-25T02:31:43;8.48;;;7.50;;
46322;SDS011;32044;52.386;13.278;2022-08-25T02:34:09;10.02;;;7.43;;
46322;SDS011;32044;52.386;13.278;2022-08-25T02:36:35;10.80;;;8.65;;
46322;SDS011;32044;52.386;13.278;2022-08-25T02:39:02;12.20;;;8.50;;
46322;SDS011;32044;52.386;13.278;2022-08-25T02:41:28;9.48;;;7.50;;
46322;SDS011;32044;52.386;13.278;2022-08-25T02:43:55;13.35;;;8.98;;
46322;SDS011;32044;52.386;13.278;2022-08-25T02:46:20;11.65;;;9.30;;
46322;SDS011;32044;52.386;13.278;2022-08-25T02:48:46;15.73;;;9.27;;
46322;SDS011;32044;52.386;13.278;2022-08-25T02:51:12;12.07;;;9.43;;
46322;SDS011;32044;52.386;13.278;2022-08-25T02:53:38;12.13;;;8.93;;
46322;SDS011;32044;52.386;13.278;2022-08-25T02:56:05;8.88;;;8.00;;
46322;SDS011;32044;52.386;13.278;2022-08-25T02:58:31;9.55;;;7.90;;
46322;SDS011;32044;52.386;13.278;2022-08-25T03:00:57;13.13;;;9.23;;
46322;SDS011;32044;52.386;13.278;2022-08-25T03:03:22;12.77;;;8.63;;
46322;SDS011;32044;52.386;13.278;2022-08-25T03:05:47;8.80;;;7.82;;
46322;SDS011;32044;52.386;13.278;2022-08-25T03:08:12;8.88;;;7.53;;
46322;SDS011;32044;52.386;13.278;2022-08-25T03:10:38;9.63;;;7.75;;
46322;SDS011;32044;52.386;13.278;2022-08-25T03:13:03;9.63;;;7.93;;
46322;SDS011;32044;52.386;13.278;2022-08-25T03:15:29;8.98;;;8.00;;
46322;SDS011;32044;52.386;13.278;2022-08-25T03:17:54;9.30;;;7.88;;
46322;SDS011;32044;52.386;13.278;2022-08-25T03:20:20;8.55;;;7.15;;
46322;SDS011;32044;52.386;13.278;2022-08-25T03:22:47;11.02;;;7.60;;
46322;SDS011;32044;52.386;13.278;2022-08-25T03:25:13;9.50;;;7.78;;
46322;SDS011;32044;52.386;13.278;2022-08-25T03:27:57;10.13;;;7.40;;
46322;SDS011;32044;52.386;13.278;2022-08-25T03:30:22;9.88;;;7.60;;
46322;SDS011;32044;52.386;13.278;2022-08-25T03:32:47;11.93;;;8.38;;
46322;SDS011;32044;52.386;13.278;2022-08-25T03:35:13;10.40;;;7.75;;
46322;SDS011;32044;52.386;13.278;2022-08-25T03:37:38;10.43;;;8.25;;
46322;SDS011;32044;52.386;13.278;2022-08-25T03:40:05;9.27;;;8.32;;
46322;SDS011;32044;52.386;13.278;2022-08-25T03:42:33;9.35;;;8.23;;
46322;SDS011;32044;52.386;13.278;2022-08-25T03:45:00;8.60;;;7.10;;
46322;SDS011;32044;52.386;13.278;2022-08-25T03:47:27;8.20;;;7.28;;
46322;SDS011;32044;52.386;13.278;2022-08-25T03:49:53;10.60;;;8.10;;
46322;SDS011;32044;52.386;13.278;2022-08-25T03:52:18;9.27;;;7.90;;
46322;SDS011;32044;52.386;13.278;2022-08-25T03:54:44;8.82;;;6.95;;
46322;SDS011;32044;52.386;13.278;2022-08-25T03:57:10;10.02;;;7.55;;
46322;SDS011;32044;52.386;13.278;2022-08-25T03:59:35;11.88;;;8.27;;
46322;SDS011;32044;52.386;13.278;2022-08-25T04:02:03;9.10;;;7.25;;
46322;SDS011;32044;52.386;13.278;2022-08-25T04:04:31;9.32;;;7.53;;
46322;SDS011;32044;52.386;13.278;2022-08-25T04:06:57;10.27;;;8.38;;
46322;SDS011;32044;52.386;13.278;2022-08-25T04:09:23;14.15;;;8.77;;
46322;SDS011;32044;52.386;13.278;2022-08-25T04:11:48;10.50;;;8.05;;
46322;SDS011;32044;52.386;13.278;2022-08-25T04:14:14;9.18;;;8.27;;
46322;SDS011;32044;52.386;13.278;2022-08-25T04:16:39;10.13;;;8.07;;
46322;SDS011;32044;52.386;13.278;2022-08-25T04:19:06;11.68;;;8.32;;
46322;SDS011;32044;52.386;13.278;2022-08-25T04:21:33;8.98;;;8.05;;
46322;SDS011;32044;52.386;13.278;2022-08-25T04:23:58;13.32;;;9.00;;
46322;SDS011;32044;52.386;13.278;2022-08-25T04:26:29;11.20;;;9.77;;
46322;SDS011;32044;52.386;13.278;2022-08-25T04:28:56;10.52;;;9.48;;
46322;SDS011;32044;52.386;13.278;2022-08-25T04:31:22;14.82;;;11.25;;
46322;SDS011;32044;52.386;13.278;2022-08-25T04:33:48;10.77;;;9.30;;
46322;SDS011;32044;52.386;13.278;2022-08-25T04:36:13;14.90;;;10.88;;
46322;SDS011;32044;52.386;13.278;2022-08-25T04:38:41;13.82;;;10.02;;
46322;SDS011;32044;52.386;13.278;2022-08-25T04:41:08;10.73;;;9.10;;
46322;SDS011;32044;52.386;13.278;2022-08-25T04:43:34;15.73;;;10.35;;
46322;SDS011;32044;52.386;13.278;2022-08-25T04:46:04;15.95;;;10.93;;
46322;SDS011;32044;52.386;13.278;2022-08-25T04:48:35;16.92;;;12.48;;
46322;SDS011;32044;52.386;13.278;2022-08-25T04:51:08;14.18;;;10.98;;
46322;SDS011;32044;52.386;13.278;2022-08-25T04:53:35;13.60;;;11.10;;
46322;SDS011;32044;52.386;13.278;2022-08-25T04:56:04;17.33;;;12.13;;
46322;SDS011;32044;52.386;13.278;2022-08-25T04:58:30;16.52;;;12.15;;
46322;SDS011;32044;52.386;13.278;2022-08-25T05:01:06;16.67;;;11.23;;
46322;SDS011;32044;52.386;13.278;2022-08-25T05:03:33;10.80;;;9.70;;
46322;SDS011;32044;52.386;13.278;2022-08-25T05:05:58;11.43;;;9.60;;
46322;SDS011;32044;52.386;13.278;2022-08-25T05:08:24;12.18;;;8.82;;
46322;SDS011;32044;52.386;13.278;2022-08-25T05:10:49;15.20;;;10.75;;
46322;SDS011;32044;52.386;13.278;2022-08-25T05:13:15;16.05;;;10.73;;
46322;SDS011;32044;52.386;13.278;2022-08-25T05:15:40;19.70;;;10.93;;
46322;SDS011;32044;52.386;13.278;2022-08-25T05:18:16;18.45;;;10.90;;
46322;SDS011;32044;52.386;13.278;2022-08-25T05:20:42;13.70;;;10.32;;
46322;SDS011;32044;52.386;13.278;2022-08-25T05:23:07;16.58;;;11.70;;
46322;SDS011;32044;52.386;13.278;2022-08-25T05:25:33;12.75;;;10.65;;
46322;SDS011;32044;52.386;13.278;2022-08-25T05:27:58;13.05;;;10.40;;
46322;SDS011;32044;52.386;13.278;2022-08-25T05:30:23;15.05;;;12.27;;
46322;SDS011;32044;52.386;13.278;2022-08-25T05:32:48;16.17;;;11.45;;
46322;SDS011;32044;52.386;13.278;2022-08-25T05:35:14;19.45;;;11.75;;
46322;SDS011;32044;52.386;13.278;2022-08-25T05:37:40;18.42;;;10.93;;
46322;SDS011;32044;52.386;13.278;2022-08-25T05:40:05;19.63;;;11.85;;
46322;SDS011;32044;52.386;13.278;2022-08-25T05:42:31;23.55;;;12.38;;
46322;SDS011;32044;52.386;13.278;2022-08-25T05:44:57;16.92;;;11.07;;
46322;SDS011;32044;52.386;13.278;2022-08-25T05:47:22;17.83;;;10.98;;
46322;SDS011;32044;52.386;13.278;2022-08-25T05:49:48;19.08;;;11.90;;
46322;SDS011;32044;52.386;13.278;2022-08-25T05:52:13;21.48;;;12.95;;
46322;SDS011;32044;52.386;13.278;2022-08-25T05:54:38;18.80;;;11.43;;
46322;SDS011;32044;52.386;13.278;2022-08-25T05:57:04;28.23;;;12.15;;
46322;SDS011;32044;52.386;13.278;2022-08-25T05:59:30;22.00;;;13.23;;
46322;SDS011;32044;52.386;13.278;2022-08-25T06:01:55;21.30;;;12.32;;
46322;SDS011;32044;52.386;13.278;2022-08-25T06:04:39;16.83;;;10.90;;
46322;SDS011;32044;52.386;13.278;2022-08-25T06:07:04;20.08;;;12.52;;
46322;SDS011;32044;52.386;13.278;2022-08-25T06:09:29;25.88;;;12.48;;
46322;SDS011;32044;52.386;13.278;2022-08-25T06:11:54;20.08;;;14.27;;
46322;SDS011;32044;52.386;13.278;2022-08-25T06:14:20;26.25;;;14.48;;
46322;SDS011;32044;52.386;13.278;2022-08-25T06:16:45;21.08;;;15.07;;
46322;SDS011;32044;52.386;13.278;2022-08-25T06:19:12;27.75;;;16.98;;
46322;SDS011;32044;52.386;13.278;2022-08-25T06:21:38;20.58;;;15.50;;
46322;SDS011;32044;52.386;13.278;2022-08-25T06:24:04;26.70;;;19.10;;
46322;SDS011;32044;52.386;13.278;2022-08-25T06:26:30;27.85;;;20.20;;
46322;SDS011;32044;52.386;13.278;2022-08-25T06:28:55;29.08;;;21.05;;
46322;SDS011;32044;52.386;13.278;2022-08-25T06:31:21;29.85;;;22.60;;
46322;SDS011;32044;52.386;13.278;2022-08-25T06:33:47;38.28;;;21.67;;
46322;SDS011;32044;52.386;13.278;2022-08-25T06:36:12;25.55;;;18.48;;
46322;SDS011;32044;52.386;13.278;2022-08-25T06:38:38;28.58;;;20.92;;
46322;SDS011;32044;52.386;13.278;2022-08-25T06:41:04;32.83;;;20.67;;
46322;SDS011;32044;52.386;13.278;2022-08-25T06:43:30;26.77;;;20.25;;
46322;SDS011;32044;52.386;13.278;2022-08-25T06:45:57;28.05;;;20.42;;
46322;SDS011;32044;52.386;13.278;2022-08-25T06:48:22;26.27;;;20.13;;
46322;SDS011;32044;52.386;13.278;2022-08-25T06:50:48;27.35;;;19.77;;
46322;SDS011;32044;52.386;13.278;2022-08-25T06:53:13;25.98;;;18.75;;
46322;SDS011;32044;52.386;13.278;2022-08-25T06:55:38;26.38;;;18.70;;
46322;SDS011;32044;52.386;13.278;2022-08-25T06:58:04;94.80;;;33.42;;
46322;SDS011;32044;52.386;13.278;2022-08-25T07:00:30;23.58;;;17.20;;
46322;SDS011;32044;52.386;13.278;2022-08-25T07:02:56;23.92;;;18.83;;
46322;SDS011;32044;52.386;13.278;2022-08-25T07:05:22;25.38;;;19.00;;
46322;SDS011;32044;52.386;13.278;2022-08-25T07:07:47;28.38;;;17.33;;
46322;SDS011;32044;52.386;13.278;2022-08-25T07:10:14;23.25;;;18.67;;
46322;SDS011;32044;52.386;13.278;2022-08-25T07:12:39;24.38;;;18.75;;
46322;SDS011;32044;52.386;13.278;2022-08-25T07:15:05;34.55;;;20.80;;
46322;SDS011;32044;52.386;13.278;2022-08-25T07:17:30;29.13;;;21.00;;
46322;SDS011;32044;52.386;13.278;2022-08-25T07:19:56;28.95;;;18.52;;
46322;SDS011;32044;52.386;13.278;2022-08-25T07:22:21;187.88;;;36.67;;
46322;SDS011;32044;52.386;13.278;2022-08-25T07:24:47;24.55;;;18.00;;
46322;SDS011;32044;52.386;13.278;2022-08-25T07:27:12;35.42;;;20.88;;
46322;SDS011;32044;52.386;13.278;2022-08-25T07:29:37;27.88;;;20.27;;
46322;SDS011;32044;52.386;13.278;2022-08-25T07:32:03;48.17;;;25.85;;
46322;SDS011;32044;52.386;13.278;2022-08-25T07:34:29;26.33;;;18.05;;
46322;SDS011;32044;52.386;13.278;2022-08-25T07:37:13;29.27;;;18.98;;
46322;SDS011;32044;52.386;13.278;2022-08-25T07:39:38;25.42;;;17.40;;
46322;SDS011;32044;52.386;13.278;2022-08-25T07:42:04;31.02;;;18.30;;
46322;SDS011;32044;52.386;13.278;2022-08-25T07:44:29;25.23;;;18.77;;
46322;SDS011;32044;52.386;13.278;2022-08-25T07:46:55;29.45;;;19.00;;
46322;SDS011;32044;52.386;13.278;2022-08-25T07:49:21;22.80;;;16.27;;
46322;SDS011;32044;52.386;13.278;2022-08-25T07:51:47;21.75;;;16.50;;
46322;SDS011;32044;52.386;13.278;2022-08-25T07:54:13;28.63;;;18.60;;
46322;SDS011;32044;52.386;13.278;2022-08-25T07:56:39;22.67;;;17.30;;
46322;SDS011;32044;52.386;13.278;2022-08-25T07:59:07;22.20;;;16.38;;
46322;SDS011;32044;52.386;13.278;2022-08-25T08:01:32;26.02;;;17.95;;
46322;SDS011;32044;52.386;13.278;2022-08-25T08:03:58;21.27;;;15.88;;
46322;SDS011;32044;52.386;13.278;2022-08-25T08:06:23;21.88;;;15.25;;
46322;SDS011;32044;52.386;13.278;2022-08-25T08:08:49;21.92;;;13.75;;
46322;SDS011;32044;52.386;13.278;2022-08-25T08:11:16;21.95;;;15.10;;
46322;SDS011;32044;52.386;13.278;2022-08-25T08:13:43;26.00;;;17.65;;
46322;SDS011;32044;52.386;13.278;2022-08-25T08:16:09;21.48;;;14.90;;
46322;SDS011;32044;52.386;13.278;2022-08-25T08:18:35;22.30;;;16.65;;
46322;SDS011;32044;52.386;13.278;2022-08-25T08:21:01;21.73;;;16.27;;
46322;SDS011;32044;52.386;13.278;2022-08-25T08:23:26;24.05;;;15.93;;
46322;SDS011;32044;52.386;13.278;2022-08-25T08:25:52;26.02;;;14.65;;
46322;SDS011;32044;52.386;13.278;2022-08-25T08:28:17;24.08;;;15.25;;
46322;SDS011;32044;52.386;13.278;2022-08-25T08:30:42;21.17;;;16.17;;
46322;SDS011;32044;52.386;13.278;2022-08-25T08:33:08;23.35;;;14.90;;
46322;SDS011;32044;52.386;13.278;2022-08-25T08:35:33;18.85;;;14.32;;
46322;SDS011;32044;52.386;13.278;2022-08-25T08:37:58;20.70;;;14.48;;
46322;SDS011;32044;52.386;13.278;2022-08-25T08:40:24;22.83;;;15.32;;
46322;SDS011;32044;52.386;13.278;2022-08-25T08:42:52;15.98;;;12.38;;
46322;SDS011;32044;52.386;13.278;2022-08-25T08:45:33;23.15;;;15.18;;
46322;SDS011;32044;52.386;13.278;2022-08-25T08:48:20;20.08;;;15.32;;
46322;SDS011;32044;52.386;13.278;2022-08-25T08:53:54;19.92;;;14.68;;
46322;SDS011;32044;52.386;13.278;2022-08-25T08:56:22;19.45;;;15.15;;
46322;SDS011;32044;52.386;13.278;2022-08-25T08:58:52;27.75;;;17.00;;
46322;SDS011;32044;52.386;13.278;2022-08-25T09:01:27;21.45;;;16.02;;
46322;SDS011;32044;52.386;13.278;2022-08-25T09:03:58;20.02;;;14.48;;
46322;SDS011;32044;52.386;13.278;2022-08-25T09:06:37;21.92;;;13.10;;
46322;SDS011;32044;52.386;13.278;2022-08-25T09:09:14;20.60;;;12.90;;
46322;SDS011;32044;52.386;13.278;2022-08-25T09:11:58;25.25;;;13.32;;
46322;SDS011;32044;52.386;13.278;2022-08-25T09:14:43;26.75;;;15.05;;
46322;SDS011;32044;52.386;13.278;2022-08-25T09:20:06;18.42;;;11.90;;
46322;SDS011;32044;52.386;13.278;2022-08-25T09:27:54;22.80;;;12.95;;
46322;SDS011;32044;52.386;13.278;2022-08-25T09:30:22;21.83;;;12.68;;
46322;SDS011;32044;52.386;13.278;2022-08-25T09:32:51;25.83;;;13.47;;
46322;SDS011;32044;52.386;13.278;2022-08-25T09:35:26;22.52;;;13.18;;
46322;SDS011;32044;52.386;13.278;2022-08-25T09:38:09;21.60;;;12.35;;
46322;SDS011;32044;52.386;13.278;2022-08-25T09:40:37;22.73;;;12.50;;
46322;SDS011;32044;52.386;13.278;2022-08-25T09:43:08;16.50;;;12.20;;
46322;SDS011;32044;52.386;13.278;2022-08-25T09:45:45;24.15;;;13.43;;
46322;SDS011;32044;52.386;13.278;2022-08-25T09:48:47;21.98;;;13.00;;
46322;SDS011;32044;52.386;13.278;2022-08-25T09:53:59;17.40;;;10.68;;
46322;SDS011;32044;52.386;13.278;2022-08-25T09:56:30;20.85;;;12.02;;
46322;SDS011;32044;52.386;13.278;2022-08-25T10:01:50;17.02;;;11.23;;
46322;SDS011;32044;52.386;13.278;2022-08-25T10:04:27;12.98;;;9.50;;
46322;SDS011;32044;52.386;13.278;2022-08-25T10:06:55;20.52;;;11.07;;
46322;SDS011;32044;52.386;13.278;2022-08-25T10:09:31;22.25;;;10.07;;
46322;SDS011;32044;52.386;13.278;2022-08-25T10:12:15;16.65;;;9.93;;
46322;SDS011;32044;52.386;13.278;2022-08-25T10:14:45;20.80;;;10.00;;
46322;SDS011;32044;52.386;13.278;2022-08-25T10:17:15;19.95;;;10.77;;
46322;SDS011;32044;52.386;13.278;2022-08-25T10:19:48;16.20;;;9.85;;
46322;SDS011;32044;52.386;13.278;2022-08-25T10:22:29;18.03;;;9.57;;
46322;SDS011;32044;52.386;13.278;2022-08-25T10:24:58;14.98;;;9.98;;
46322;SDS011;32044;52.386;13.278;2022-08-25T10:30:27;16.13;;;9.65;;
46322;SDS011;32044;52.386;13.278;2022-08-25T10:33:02;14.65;;;9.45;;
46322;SDS011;32044;52.386;13.278;2022-08-25T10:35:37;13.40;;;8.85;;
46322;SDS011;32044;52.386;13.278;2022-08-25T10:40:51;13.35;;;8.70;;
46322;SDS011;32044;52.386;13.278;2022-08-25T10:43:24;25.50;;;8.80;;
46322;SDS011;32044;52.386;13.278;2022-08-25T10:46:08;23.52;;;8.95;;
46322;SDS011;32044;52.386;13.278;2022-08-25T10:51:24;11.85;;;7.53;;
46322;SDS011;32044;52.386;13.278;2022-08-25T10:53:59;18.58;;;8.30;;
46322;SDS011;32044;52.386;13.278;2022-08-25T10:56:33;13.38;;;7.18;;
46322;SDS011;32044;52.386;13.278;2022-08-25T11:02:07;11.25;;;7.15;;
46322;SDS011;32044;52.386;13.278;2022-08-25T11:05:02;12.00;;;7.20;;
46322;SDS011;32044;52.386;13.278;2022-08-25T11:07:40;11.95;;;7.38;;
46322;SDS011;32044;52.386;13.278;2022-08-25T11:10:14;19.90;;;7.15;;
46322;SDS011;32044;52.386;13.278;2022-08-25T11:13:18;11.07;;;6.85;;
46322;SDS011;32044;52.386;13.278;2022-08-25T11:15:39;11.02;;;6.50;;
46322;SDS011;32044;52.386;13.278;2022-08-25T11:18:12;11.00;;;6.22;;
46322;SDS011;32044;52.386;13.278;2022-08-25T11:20:45;15.82;;;7.13;;
46322;SDS011;32044;52.386;13.278;2022-08-25T11:23:17;19.60;;;7.00;;
46322;SDS011;32044;52.386;13.278;2022-08-25T11:26:31;12.80;;;7.25;;
46322;SDS011;32044;52.386;13.278;2022-08-25T11:28:50;14.00;;;6.50;;
46322;SDS011;32044;52.386;13.278;2022-08-25T11:31:39;12.82;;;7.13;;
46322;SDS011;32044;52.386;13.278;2022-08-25T11:34:08;19.85;;;8.02;;
46322;SDS011;32044;52.386;13.278;2022-08-25T11:36:39;18.30;;;7.30;;
46322;SDS011;32044;52.386;13.278;2022-08-25T11:41:45;18.17;;;8.40;;
46322;SDS011;32044;52.386;13.278;2022-08-25T11:44:45;23.65;;;8.02;;
46322;SDS011;32044;52.386;13.278;2022-08-25T11:47:28;17.35;;;8.85;;
46322;SDS011;32044;52.386;13.278;2022-08-25T11:54:55;19.45;;;7.35;;
46322;SDS011;32044;52.386;13.278;2022-08-25T11:57:22;16.17;;;6.55;;
46322;SDS011;32044;52.386;13.278;2022-08-25T12:05:07;14.55;;;6.57;;
46322;SDS011;32044;52.386;13.278;2022-08-25T12:10:58;19.27;;;7.07;;
46322;SDS011;32044;52.386;13.278;2022-08-25T12:13:43;16.15;;;7.22;;
46322;SDS011;32044;52.386;13.278;2022-08-25T12:21:48;17.08;;;6.82;;
46322;SDS011;32044;52.386;13.278;2022-08-25T12:24:14;21.52;;;8.02;;
46322;SDS011;32044;52.386;13.278;2022-08-25T12:26:54;17.73;;;7.63;;
46322;SDS011;32044;52.386;13.278;2022-08-25T12:32:05;12.85;;;6.03;;
46322;SDS011;32044;52.386;13.278;2022-08-25T12:34:52;21.88;;;7.68;;
46322;SDS011;32044;52.386;13.278;2022-08-25T12:37:19;12.80;;;6.40;;
46322;SDS011;32044;52.386;13.278;2022-08-25T12:47:50;11.88;;;6.25;;
46322;SDS011;32044;52.386;13.278;2022-08-25T12:50:50;14.82;;;6.20;;
46322;SDS011;32044;52.386;13.278;2022-08-25T12:55:58;13.05;;;6.85;;
46322;SDS011;32044;52.386;13.278;2022-08-25T12:58:27;15.65;;;6.90;;
46322;SDS011;32044;52.386;13.278;2022-08-25T13:01:20;23.02;;;7.20;;
46322;SDS011;32044;52.386;13.278;2022-08-25T13:04:03;14.50;;;6.82;;
46322;SDS011;32044;52.386;13.278;2022-08-25T13:07:04;14.75;;;6.93;;
46322;SDS011;32044;52.386;13.278;2022-08-25T13:12:48;13.98;;;6.70;;
46322;SDS011;32044;52.386;13.278;2022-08-25T13:15:26;15.88;;;6.82;;
46322;SDS011;32044;52.386;13.278;2022-08-25T13:18:16;13.80;;;6.55;;
46322;SDS011;32044;52.386;13.278;2022-08-25T13:20:44;16.42;;;6.72;;
46322;SDS011;32044;52.386;13.278;2022-08-25T13:23:11;16.85;;;6.05;;
46322;SDS011;32044;52.386;13.278;2022-08-25T13:25:45;14.65;;;6.40;;
46322;SDS011;32044;52.386;13.278;2022-08-25T13:28:17;21.02;;;6.72;;
46322;SDS011;32044;52.386;13.278;2022-08-25T13:30:45;13.15;;;6.22;;
46322;SDS011;32044;52.386;13.278;2022-08-25T13:33:21;22.75;;;6.93;;
46322;SDS011;32044;52.386;13.278;2022-08-25T13:35:52;14.43;;;7.18;;
46322;SDS011;32044;52.386;13.278;2022-08-25T13:38:37;18.02;;;6.18;;
46322;SDS011;32044;52.386;13.278;2022-08-25T13:41:03;17.55;;;6.30;;
46322;SDS011;32044;52.386;13.278;2022-08-25T13:43:29;14.27;;;6.20;;
46322;SDS011;32044;52.386;13.278;2022-08-25T13:45:54;18.58;;;6.28;;
46322;SDS011;32044;52.386;13.278;2022-08-25T13:48:32;12.70;;;6.30;;
46322;SDS011;32044;52.386;13.278;2022-08-25T13:51:18;16.65;;;6.35;;
46322;SDS011;32044;52.386;13.278;2022-08-25T13:53:47;21.83;;;6.53;;
46322;SDS011;32044;52.386;13.278;2022-08-25T13:56:20;12.93;;;5.70;;
46322;SDS011;32044;52.386;13.278;2022-08-25T13:58:48;16.13;;;6.65;;
46322;SDS011;32044;52.386;13.278;2022-08-25T14:01:21;17.13;;;6.10;;
46322;SDS011;32044;52.386;13.278;2022-08-25T14:03:48;16.80;;;6.30;;
46322;SDS011;32044;52.386;13.278;2022-08-25T14:08:40;13.30;;;5.95;;
46322;SDS011;32044;52.386;13.278;2022-08-25T14:11:09;19.70;;;5.88;;
46322;SDS011;32044;52.386;13.278;2022-08-25T14:13:36;17.60;;;6.60;;
46322;SDS011;32044;52.386;13.278;2022-08-25T14:16:07;13.07;;;5.82;;
46322;SDS011;32044;52.386;13.278;2022-08-25T14:18:47;14.52;;;5.93;;
46322;SDS011;32044;52.386;13.278;2022-08-25T14:21:14;14.82;;;6.38;;
46322;SDS011;32044;52.386;13.278;2022-08-25T14:23:40;17.17;;;5.85;;
46322;SDS011;32044;52.386;13.278;2022-08-25T14:26:06;16.38;;;6.40;;
46322;SDS011;32044;52.386;13.278;2022-08-25T14:28:31;15.88;;;5.78;;
46322;SDS011;32044;52.386;13.278;2022-08-25T14:31:11;20.98;;;6.60;;
46322;SDS011;32044;52.386;13.278;2022-08-25T14:33:42;20.38;;;5.57;;
46322;SDS011;32044;52.386;13.278;2022-08-25T14:36:16;9.02;;;5.55;;
46322;SDS011;32044;52.386;13.278;2022-08-25T14:38:41;16.63;;;6.40;;
46322;SDS011;32044;52.386;13.278;2022-08-25T14:41:06;19.30;;;6.60;;
46322;SDS011;32044;52.386;13.278;2022-08-25T14:43:32;13.98;;;5.93;;
46322;SDS011;32044;52.386;13.278;2022-08-25T14:45:58;14.10;;;5.88;;
46322;SDS011;32044;52.386;13.278;2022-08-25T14:48:28;11.40;;;5.03;;
46322;SDS011;32044;52.386;13.278;2022-08-25T14:50:57;16.38;;;6.30;;
46322;SDS011;32044;52.386;13.278;2022-08-25T14:53:23;12.60;;;6.03;;
46322;SDS011;32044;52.386;13.278;2022-08-25T14:55:49;13.05;;;6.10;;
46322;SDS011;32044;52.386;13.278;2022-08-25T14:58:18;16.92;;;6.32;;
46322;SDS011;32044;52.386;13.278;2022-08-25T15:00:44;11.15;;;6.10;;
46322;SDS011;32044;52.386;13.278;2022-08-25T15:03:11;20.20;;;5.82;;
46322;SDS011;32044;52.386;13.278;2022-08-25T15:05:38;12.35;;;5.97;;
46322;SDS011;32044;52.386;13.278;2022-08-25T15:08:04;16.20;;;5.60;;
46322;SDS011;32044;52.386;13.278;2022-08-25T15:10:47;15.45;;;5.82;;
46322;SDS011;32044;52.386;13.278;2022-08-25T15:13:13;14.63;;;6.55;;
46322;SDS011;32044;52.386;13.278;2022-08-25T15:15:39;16.35;;;6.05;;
46322;SDS011;32044;52.386;13.278;2022-08-25T15:18:07;18.23;;;6.20;;
46322;SDS011;32044;52.386;13.278;2022-08-25T15:20:32;12.90;;;5.63;;
46322;SDS011;32044;52.386;13.278;2022-08-25T15:22:58;17.33;;;6.65;;
46322;SDS011;32044;52.386;13.278;2022-08-25T15:25:24;9.20;;;5.13;;
46322;SDS011;32044;52.386;13.278;2022-08-25T15:27:49;13.45;;;5.53;;
46322;SDS011;32044;52.386;13.278;2022-08-25T15:30:14;14.37;;;6.37;;
46322;SDS011;32044;52.386;13.278;2022-08-25T15:32:40;13.98;;;5.80;;
46322;SDS011;32044;52.386;13.278;2022-08-25T15:35:05;13.10;;;6.03;;
46322;SDS011;32044;52.386;13.278;2022-08-25T15:37:31;14.60;;;5.70;;
46322;SDS011;32044;52.386;13.278;2022-08-25T15:39:56;16.00;;;5.55;;
46322;SDS011;32044;52.386;13.278;2022-08-25T15:42:21;12.73;;;5.35;;
46322;SDS011;32044;52.386;13.278;2022-08-25T15:44:47;12.23;;;5.57;;
46322;SDS011;32044;52.386;13.278;2022-08-25T15:47:12;15.80;;;6.13;;